Time;durP1;ratioP1;P1;durP2;ratioP2;P2;SDS_P1;SDS_P2;PMS_P1;PMS_P2;Temp;Humidity;BMP_temperature;BMP_pressure;BME280_temperature;BME280_humidity;BME280_pressure;Samples;Min_cycle;Max_cycle;Signal;HPM_P1;HPM_P2
2022/03/23 00:00:46;;;;;;;18.25;8.25;;;-1.00;82.00;;;;;;4914407;29;20032;-78
2022/03/23 00:03:13;;;;;;;28.30;9.20;;;-1.00;82.10;;;;;;4931581;29;20088;-79
2022/03/23 00:05:41;;;;;;;16.92;7.47;;;-1.00;82.00;;;;;;4913033;29;20032;-78
2022/03/23 00:08:07;;;;;;;14.73;7.63;;;-1.00;82.00;;;;;;4932671;29;20101;-78
2022/03/23 00:10:35;;;;;;;15.38;8.07;;;-0.90;81.90;;;;;;4913793;29;20023;-78
2022/03/23 00:13:01;;;;;;;16.25;7.70;;;-0.90;81.70;;;;;;4929316;29;20034;-78
2022/03/23 00:15:27;;;;;;;13.13;7.18;;;-0.90;81.70;;;;;;4935131;23;20040;-78
2022/03/23 00:17:54;;;;;;;16.20;7.32;;;-0.90;81.70;;;;;;4928695;29;20111;-78
2022/03/23 00:20:24;;;;;;;18.00;8.68;;;-1.00;81.40;;;;;;4912572;29;20107;-78
2022/03/23 00:22:51;;;;;;;18.52;8.23;;;-1.00;81.50;;;;;;4931104;29;20108;-78
2022/03/23 00:25:17;;;;;;;18.08;7.72;;;-1.10;81.70;;;;;;4919460;23;20404;-78
2022/03/23 00:27:42;;;;;;;15.75;9.15;;;-1.10;82.10;;;;;;4915191;29;20119;-78
2022/03/23 00:30:10;;;;;;;16.30;7.85;;;-1.10;82.30;;;;;;4939643;23;20048;-78
2022/03/23 00:32:36;;;;;;;15.18;7.78;;;-1.10;82.60;;;;;;4923153;23;20047;-78
2022/03/23 00:35:03;;;;;;;14.00;7.43;;;-1.10;82.50;;;;;;4937631;23;20032;-78
2022/03/23 00:37:29;;;;;;;16.02;7.60;;;-1.10;82.50;;;;;;4936739;23;20083;-78
2022/03/23 00:39:54;;;;;;;17.00;7.75;;;-1.10;82.60;;;;;;4913714;29;20088;-78
2022/03/23 00:42:20;;;;;;;19.98;7.93;;;-1.10;82.70;;;;;;4910100;29;20008;-78
2022/03/23 00:44:46;;;;;;;16.90;7.60;;;-1.20;82.70;;;;;;4929331;29;20068;-78
2022/03/23 00:47:11;;;;;;;16.75;8.13;;;-1.20;82.80;;;;;;4929823;29;20068;-78
2022/03/23 00:49:37;;;;;;;16.45;7.65;;;-1.20;82.90;;;;;;4926626;29;20657;-78
2022/03/23 00:52:06;;;;;;;16.95;8.48;;;-1.20;83.00;;;;;;4927651;29;20441;-78
2022/03/23 00:57:06;;;;;;;15.10;7.30;;;-1.30;83.30;;;;;;4932975;23;20032;-78
2022/03/23 00:59:33;;;;;;;13.38;6.70;;;-1.20;83.30;;;;;;4921034;23;20060;-78
2022/03/23 01:01:58;;;;;;;14.20;7.00;;;-1.30;83.30;;;;;;4913429;28;20060;-78
2022/03/23 01:04:25;;;;;;;15.38;7.55;;;-1.30;83.50;;;;;;4936348;23;20500;-78
2022/03/23 01:06:53;;;;;;;14.40;8.32;;;-1.20;83.70;;;;;;4911324;29;20476;-78
2022/03/23 01:09:23;;;;;;;13.32;7.40;;;-1.20;83.40;;;;;;4927845;29;20024;-78
2022/03/23 01:11:51;;;;;;;14.55;7.38;;;-1.20;83.20;;;;;;4929033;29;20014;-78
2022/03/23 01:14:18;;;;;;;17.50;7.15;;;-1.30;83.10;;;;;;4929268;29;20544;-78
2022/03/23 01:16:45;;;;;;;15.95;7.95;;;-1.30;83.10;;;;;;4936259;23;20044;-78
2022/03/23 01:19:11;;;;;;;15.18;8.27;;;-1.40;83.40;;;;;;4930364;29;20050;-79
2022/03/23 01:21:44;;;;;;;15.23;7.28;;;-1.40;83.80;;;;;;4910672;29;20028;-78
2022/03/23 01:24:11;;;;;;;13.27;7.65;;;-1.50;84.00;;;;;;4909398;29;20027;-78
2022/03/23 01:26:37;;;;;;;14.32;7.65;;;-1.40;84.20;;;;;;4935965;23;20503;-78
2022/03/23 01:29:03;;;;;;;14.43;7.22;;;-1.50;84.30;;;;;;4910464;29;20039;-77
2022/03/23 01:31:31;;;;;;;14.57;7.53;;;-1.60;84.60;;;;;;4927976;29;20028;-78
2022/03/23 01:33:59;;;;;;;12.70;6.97;;;-1.60;84.90;;;;;;4931456;29;20016;-78
2022/03/23 01:36:29;;;;;;;18.60;7.03;;;-1.60;85.20;;;;;;4936594;23;20047;-78
2022/03/23 01:38:56;;;;;;;15.18;6.97;;;-1.60;85.40;;;;;;4930802;29;20044;-79
2022/03/23 01:41:23;;;;;;;12.45;7.40;;;-1.60;85.40;;;;;;4929778;29;20005;-78
2022/03/23 01:43:49;;;;;;;17.48;7.07;;;-1.70;85.50;;;;;;4926703;29;20012;-78
2022/03/23 01:46:20;;;;;;;13.02;6.90;;;-1.70;85.70;;;;;;4932710;23;20064;-78
2022/03/23 01:48:50;;;;;;;14.35;7.60;;;-1.70;85.80;;;;;;4927354;29;20384;-78
2022/03/23 01:51:16;;;;;;;12.68;6.88;;;-1.70;86.00;;;;;;4909130;29;20032;-77
2022/03/23 01:53:41;;;;;;;14.52;6.93;;;-1.60;85.90;;;;;;4914683;29;20031;-78
2022/03/23 01:56:15;;;;;;;11.48;6.70;;;-1.60;85.80;;;;;;4930354;29;20040;-78
2022/03/23 01:58:41;;;;;;;12.90;7.88;;;-1.70;85.80;;;;;;4930245;29;20066;-78
2022/03/23 02:01:11;;;;;;;13.90;6.90;;;-1.70;86.00;;;;;;4918616;23;20056;-77
2022/03/23 02:03:37;;;;;;;10.77;6.57;;;-1.70;86.10;;;;;;4928265;29;20028;-78
2022/03/23 02:06:02;;;;;;;12.50;7.03;;;-1.70;86.50;;;;;;4927022;29;20500;-77
2022/03/23 02:08:28;;;;;;;12.73;6.55;;;-1.70;86.30;;;;;;4929188;29;20013;-78
2022/03/23 02:10:54;;;;;;;10.75;6.30;;;-1.70;86.30;;;;;;4911867;29;20032;-78
2022/03/23 02:13:20;;;;;;;16.52;6.57;;;-1.80;86.20;;;;;;4930096;29;20351;-78
2022/03/23 02:15:46;;;;;;;13.68;6.85;;;-1.80;86.40;;;;;;4915516;29;20036;-78
2022/03/23 02:18:11;;;;;;;11.65;7.10;;;-1.80;86.60;;;;;;4931576;29;20102;-78
2022/03/23 02:20:38;;;;;;;10.82;6.20;;;-1.80;86.90;;;;;;4933278;29;20028;-78
2022/03/23 02:23:03;;;;;;;11.18;6.68;;;-1.80;86.80;;;;;;4932502;29;20436;-78
2022/03/23 02:25:29;;;;;;;13.77;7.00;;;-1.80;86.60;;;;;;4917548;29;20013;-78
2022/03/23 02:27:55;;;;;;;11.48;6.57;;;-1.80;86.70;;;;;;4916908;29;20034;-78
2022/03/23 02:30:38;;;;;;;12.60;6.63;;;-1.80;86.70;;;;;;4914250;29;20032;-78
2022/03/23 02:33:04;;;;;;;12.75;6.55;;;-1.80;86.50;;;;;;4933969;29;20391;-78
2022/03/23 02:35:29;;;;;;;15.48;7.32;;;-1.80;86.60;;;;;;4933923;29;20013;-78
2022/03/23 02:37:59;;;;;;;16.02;6.45;;;-1.90;86.90;;;;;;4916499;29;20050;-78
2022/03/23 02:40:25;;;;;;;14.75;6.22;;;-2.00;87.20;;;;;;4933722;29;20028;-78
2022/03/23 02:42:54;;;;;;;12.63;6.88;;;-2.00;87.40;;;;;;4937344;23;21259;-78
2022/03/23 02:45:19;;;;;;;15.25;6.55;;;-2.00;87.30;;;;;;4931230;29;20016;-78
2022/03/23 02:47:49;;;;;;;14.32;7.00;;;-1.90;87.30;;;;;;4929591;29;20032;-78
2022/03/23 02:50:14;;;;;;;12.73;6.63;;;-2.00;87.20;;;;;;4926462;29;20086;-78
2022/03/23 03:01:52;;;;;;;11.82;6.50;;;-2.00;88.00;;;;;;4930194;29;20076;-78
2022/03/23 03:03:49;;;;;;;11.00;6.47;;;-2.20;88.30;;;;;;4940169;23;20067;-78
2022/03/23 03:06:15;;;;;;;12.27;6.40;;;-2.20;88.70;;;;;;4916936;29;20017;-78
2022/03/23 03:08:48;;;;;;;16.02;6.30;;;-2.30;89.00;;;;;;4931029;29;20059;-79
2022/03/23 03:11:21;;;;;;;13.85;7.03;;;-2.30;89.10;;;;;;4933783;29;20024;-78
2022/03/23 03:13:48;;;;;;;14.13;6.60;;;-2.30;89.30;;;;;;4917520;29;20500;-78
2022/03/23 03:16:14;;;;;;;17.35;7.97;;;-2.30;89.50;;;;;;4910900;29;20036;-78
2022/03/23 03:18:40;;;;;;;18.42;7.50;;;-2.30;89.70;;;;;;4931016;29;20088;-78
2022/03/23 03:21:08;;;;;;;16.77;7.05;;;-2.30;89.90;;;;;;4929499;29;20028;-78
2022/03/23 03:23:36;;;;;;;15.75;8.68;;;-2.40;90.00;;;;;;4927022;29;20052;-78
2022/03/23 03:26:16;;;;;;;14.70;6.70;;;-2.30;90.10;;;;;;4913905;29;20059;-77
2022/03/23 03:28:43;;;;;;;15.80;7.70;;;-2.30;90.10;;;;;;4928624;29;20047;-78
2022/03/23 03:31:17;;;;;;;16.05;8.02;;;-2.30;90.10;;;;;;4914614;29;20040;-79
2022/03/23 03:33:51;;;;;;;12.75;7.20;;;-2.20;90.10;;;;;;4915185;29;20115;-77
2022/03/23 03:36:17;;;;;;;14.35;6.88;;;-2.30;90.10;;;;;;4921382;23;20136;-78
2022/03/23 03:38:43;;;;;;;16.05;6.32;;;-2.30;90.20;;;;;;4933768;23;20060;-77
2022/03/23 03:41:09;;;;;;;11.18;6.28;;;-2.30;90.10;;;;;;4924679;29;20051;-78
2022/03/23 03:43:35;;;;;;;18.92;9.38;;;-2.20;90.00;;;;;;4917293;23;20416;-79
2022/03/23 03:46:02;;;;;;;16.02;7.00;;;-2.30;90.10;;;;;;4926384;28;20076;-77
2022/03/23 03:48:28;;;;;;;12.93;6.80;;;-2.40;90.30;;;;;;4924925;29;20519;-78
2022/03/23 03:50:54;;;;;;;12.63;7.00;;;-2.50;90.40;;;;;;4926127;29;20032;-77
2022/03/23 03:53:20;;;;;;;13.43;6.57;;;-2.50;90.60;;;;;;4910555;29;20083;-79
2022/03/23 03:55:47;;;;;;;11.35;7.68;;;-2.50;90.70;;;;;;4931634;28;20016;-78
2022/03/23 03:58:12;;;;;;;16.23;7.25;;;-2.50;90.90;;;;;;4928013;28;20055;-79
2022/03/23 04:00:38;;;;;;;17.15;8.73;;;-2.60;90.90;;;;;;4913415;29;20032;-78
2022/03/23 04:03:04;;;;;;;18.88;8.35;;;-2.50;91.00;;;;;;4930242;28;20017;-78
2022/03/23 04:05:33;;;;;;;14.20;7.57;;;-2.60;91.10;;;;;;4913175;29;20059;-78
2022/03/23 04:07:59;;;;;;;12.57;7.22;;;-2.50;91.10;;;;;;4929892;28;20016;-78
2022/03/23 04:10:40;;;;;;;13.35;7.78;;;-2.60;90.90;;;;;;4914493;28;20019;-78
2022/03/23 04:13:07;;;;;;;12.70;7.25;;;-2.70;91.10;;;;;;4928126;29;20040;-78
2022/03/23 04:15:34;;;;;;;15.30;7.38;;;-2.80;91.30;;;;;;4944277;23;20060;-78
2022/03/23 04:18:00;;;;;;;18.35;8.63;;;-2.80;91.40;;;;;;4908335;29;20148;-78
2022/03/23 04:20:26;;;;;;;13.60;7.85;;;-2.80;91.60;;;;;;4913176;29;20027;-77
2022/03/23 04:22:51;;;;;;;17.77;7.50;;;-2.80;91.70;;;;;;4912002;29;20036;-78
2022/03/23 04:25:18;;;;;;;13.40;6.88;;;-2.70;91.70;;;;;;4921480;23;20052;-78
2022/03/23 04:27:48;;;;;;;11.50;6.78;;;-2.70;91.60;;;;;;4936326;23;20234;-78
2022/03/23 04:30:16;;;;;;;10.43;6.22;;;-2.70;91.60;;;;;;4942757;23;20059;-78
2022/03/23 04:32:42;;;;;;;12.98;7.80;;;-2.60;91.50;;;;;;4927285;29;20032;-78
2022/03/23 04:35:09;;;;;;;14.02;6.95;;;-2.60;91.60;;;;;;4929298;23;20100;-78
2022/03/23 04:37:35;;;;;;;14.68;7.45;;;-2.70;91.60;;;;;;4918853;23;20028;-77
2022/03/23 04:40:00;;;;;;;17.45;7.10;;;-2.70;91.60;;;;;;4925129;29;20020;-78
2022/03/23 04:42:34;;;;;;;12.63;7.43;;;-2.70;91.80;;;;;;4910951;29;20031;-79
2022/03/23 04:45:00;;;;;;;11.80;6.47;;;-2.80;92.00;;;;;;4934719;23;20059;-78
2022/03/23 04:47:26;;;;;;;17.92;7.80;;;-2.70;92.20;;;;;;4934368;23;20072;-78
2022/03/23 04:49:51;;;;;;;12.02;5.70;;;-2.70;92.10;;;;;;4920971;29;20016;-77
2022/03/23 04:52:17;;;;;;;14.50;7.60;;;-2.50;93.30;;;;;;4923757;29;20038;-78
2022/03/23 04:54:45;;;;;;;16.13;7.47;;;-2.20;93.70;;;;;;4920355;29;20028;-77
2022/03/23 04:57:11;;;;;;;13.70;6.55;;;-2.20;92.00;;;;;;4922716;29;20032;-78
2022/03/23 04:59:37;;;;;;;10.40;6.03;;;-2.20;92.10;;;;;;4928983;29;20164;-79
2022/03/23 05:02:03;;;;;;;16.13;8.23;;;-2.30;91.90;;;;;;4932700;29;20061;-78
2022/03/23 05:04:28;;;;;;;14.43;7.68;;;-2.30;91.80;;;;;;4914658;29;20067;-78
2022/03/23 05:06:54;;;;;;;12.18;6.70;;;-2.40;91.80;;;;;;4927229;29;20028;-78
2022/03/23 05:09:19;;;;;;;10.77;5.60;;;-2.40;91.80;;;;;;4929597;29;20019;-78
2022/03/23 05:11:45;;;;;;;13.23;6.28;;;-2.40;91.80;;;;;;4927451;29;20036;-78
2022/03/23 05:14:11;;;;;;;11.05;5.75;;;-2.30;91.80;;;;;;4914893;29;20008;-77
2022/03/23 05:16:38;;;;;;;10.50;6.50;;;-2.30;91.70;;;;;;4923975;29;20023;-78
2022/03/23 05:19:04;;;;;;;15.10;7.20;;;-2.30;91.60;;;;;;4926363;29;20071;-78
2022/03/23 05:21:30;;;;;;;16.05;6.05;;;-2.30;91.60;;;;;;4907890;29;20057;-78
2022/03/23 05:23:55;;;;;;;15.43;5.97;;;-2.20;91.60;;;;;;4932432;23;20111;-78
2022/03/23 05:26:21;;;;;;;14.20;6.60;;;-2.10;91.50;;;;;;4926799;29;20012;-77
2022/03/23 05:28:47;;;;;;;11.75;6.18;;;-2.10;91.50;;;;;;4923026;29;20428;-78
2022/03/23 05:31:13;;;;;;;14.80;7.00;;;-2.10;91.40;;;;;;4923611;29;20501;-78
2022/03/23 05:33:39;;;;;;;17.25;7.38;;;-2.10;91.40;;;;;;4921423;29;20039;-78
2022/03/23 05:36:05;;;;;;;15.10;6.97;;;-2.00;91.60;;;;;;4906502;29;20035;-81
2022/03/23 05:38:30;;;;;;;14.23;7.22;;;-2.00;91.40;;;;;;4912441;29;20028;-80
2022/03/23 05:40:56;;;;;;;18.33;7.70;;;-2.00;91.50;;;;;;4912240;29;20044;-80
2022/03/23 05:43:22;;;;;;;13.82;8.05;;;-1.90;91.60;;;;;;4912400;29;20032;-81
2022/03/23 05:45:48;;;;;;;18.02;7.50;;;-1.90;91.70;;;;;;4914338;29;20032;-80
2022/03/23 05:48:17;;;;;;;17.05;7.78;;;-1.90;91.60;;;;;;4908757;29;20079;-80
2022/03/23 05:50:43;;;;;;;20.38;10.45;;;-1.80;91.50;;;;;;4906072;29;20040;-80
2022/03/23 05:53:09;;;;;;;24.27;10.15;;;-1.80;91.60;;;;;;4908398;29;20487;-80
2022/03/23 05:55:38;;;;;;;21.17;8.80;;;-1.80;91.60;;;;;;4909443;29;20060;-81
2022/03/23 05:58:04;;;;;;;25.15;8.32;;;-1.80;91.30;;;;;;4910673;29;20032;-81
2022/03/23 06:00:31;;;;;;;17.25;8.50;;;-1.70;91.40;;;;;;4925583;29;20048;-81
2022/03/23 06:02:57;;;;;;;18.98;8.20;;;-1.70;91.40;;;;;;4911535;29;20056;-80
2022/03/23 06:05:24;;;;;;;17.35;7.80;;;-1.60;91.40;;;;;;4910217;29;20025;-81
2022/03/23 06:07:50;;;;;;;15.57;7.70;;;-1.50;91.30;;;;;;4910075;29;20034;-80
2022/03/23 06:10:15;;;;;;;16.65;8.95;;;-1.50;91.20;;;;;;4923486;29;20111;-80
2022/03/23 06:12:41;;;;;;;13.13;7.15;;;-1.40;91.20;;;;;;4909956;29;20476;-81
2022/03/23 06:15:10;;;;;;;16.33;8.38;;;-1.30;91.40;;;;;;4927127;29;20073;-80
2022/03/23 06:17:38;;;;;;;20.45;8.32;;;-1.20;91.50;;;;;;4912865;29;20032;-81
2022/03/23 06:20:05;;;;;;;19.80;7.13;;;-1.00;91.70;;;;;;4987967;23;20040;-82
2022/03/23 06:22:31;;;;;;;15.82;7.15;;;-0.20;96.20;;;;;;5225906;23;20092;-81
2022/03/23 06:24:58;;;;;;;23.10;9.05;;;1.70;92.20;;;;;;4934581;28;20040;-81
2022/03/23 06:27:28;;;;;;;15.10;8.20;;;0.60;91.00;;;;;;5045432;23;20032;-81
2022/03/23 06:29:54;;;;;;;16.15;8.45;;;-0.20;90.70;;;;;;4918301;29;20075;-81
2022/03/23 06:32:21;;;;;;;19.65;8.82;;;1.10;91.50;;;;;;4934541;29;20020;-80
2022/03/23 06:34:47;;;;;;;19.10;8.73;;;1.10;91.50;;;;;;5376140;23;20052;-83
2022/03/23 06:45:02;;;;;;;16.08;8.40;;;0.40;89.60;;;;;;5254744;23;20056;-79
2022/03/23 06:47:49;;;;;;;16.13;7.72;;;2.30;90.00;;;;;;4920570;29;20107;-80
2022/03/23 06:50:39;;;;;;;15.60;8.32;;;0.70;88.10;;;;;;4937543;29;20012;-82
2022/03/23 07:03:27;;;;;;;18.40;8.48;;;1.70;84.00;;;;;;5617061;23;20060;-79
2022/03/23 07:05:52;;;;;;;19.40;12.25;;;1.70;83.50;;;;;;4911037;29;20536;-80
2022/03/23 07:11:04;;;;;;;14.07;6.63;;;4.30;83.40;;;;;;4937101;23;20083;-83
2022/03/23 07:16:05;;;;;;;15.40;7.18;;;3.00;80.10;;;;;;4858526;23;20056;-85
2022/03/23 07:18:53;;;;;;;11.30;6.70;;;3.80;86.40;;;;;;4941224;29;20036;-83
2022/03/23 07:21:39;;;;;;;19.80;7.63;;;6.60;83.30;;;;;;4939081;29;20087;-80
2022/03/23 07:24:05;;;;;;;17.20;7.50;;;6.60;82.90;;;;;;4939662;29;20036;-83
2022/03/23 07:26:31;;;;;;;13.98;7.03;;;4.30;82.30;;;;;;4980775;23;20056;-81
2022/03/23 07:28:57;;;;;;;11.95;7.18;;;2.90;82.40;;;;;;4941347;29;20064;-82
2022/03/23 07:31:23;;;;;;;12.90;6.72;;;6.10;82.40;;;;;;4940744;29;20039;-82
2022/03/23 07:41:22;;;;;;;11.32;6.35;;;5.30;80.50;;;;;;5751720;23;20059;-82
2022/03/23 07:48:56;;;;;;;13.88;9.20;;;5.60;81.20;;;;;;4896965;29;20081;-80
2022/03/23 07:51:22;;;;;;;14.95;7.28;;;5.90;83.30;;;;;;4892491;29;20041;-80
2022/03/23 07:53:47;;;;;;;17.65;8.45;;;6.00;69.40;;;;;;4884448;29;20036;-78
2022/03/23 07:56:13;;;;;;;15.00;7.10;;;6.70;75.80;;;;;;4888357;29;20049;-79
2022/03/23 07:58:38;;;;;;;14.80;7.30;;;6.60;68.70;;;;;;4884021;29;20044;-81
2022/03/23 08:01:04;;;;;;;13.50;7.75;;;6.70;68.30;;;;;;4886157;29;20061;-78
2022/03/23 08:03:30;;;;;;;11.10;6.13;;;7.20;69.40;;;;;;4868374;29;20037;-78
2022/03/23 08:05:55;;;;;;;13.02;6.25;;;7.10;66.00;;;;;;4885504;29;20029;-78
2022/03/23 08:08:22;;;;;;;16.10;6.88;;;7.30;66.00;;;;;;4883809;29;20039;-78
2022/03/23 08:10:48;;;;;;;14.40;7.25;;;7.50;66.70;;;;;;4883102;29;20028;-80
2022/03/23 08:13:16;;;;;;;9.85;6.28;;;7.60;66.70;;;;;;4872489;29;20124;-78
2022/03/23 08:15:41;;;;;;;10.48;5.70;;;7.80;65.60;;;;;;4884293;29;20021;-79
2022/03/23 08:18:07;;;;;;;10.68;5.68;;;7.90;63.90;;;;;;4883442;29;20108;-78
2022/03/23 08:20:33;;;;;;;13.10;5.90;;;8.10;63.50;;;;;;4881615;29;20032;-78
2022/03/23 08:23:10;;;;;;;10.77;5.43;;;8.30;62.90;;;;;;4881264;29;20019;-78
2022/03/23 08:25:41;;;;;;;6.60;3.83;;;8.40;61.50;;;;;;4881099;29;20033;-78
2022/03/23 08:28:07;;;;;;;5.72;4.43;;;8.70;59.10;;;;;;4881851;29;20045;-78
2022/03/23 08:30:34;;;;;;;8.85;5.22;;;8.80;58.50;;;;;;4880834;29;20056;-78
2022/03/23 08:32:59;;;;;;;9.98;4.95;;;8.90;58.60;;;;;;4882468;29;20029;-78
2022/03/23 08:35:25;;;;;;;9.52;4.85;;;9.20;59.20;;;;;;4882398;29;20017;-78
2022/03/23 08:37:52;;;;;;;9.00;4.80;;;9.20;57.90;;;;;;4865954;29;20076;-78
2022/03/23 08:40:18;;;;;;;9.80;4.85;;;9.40;57.50;;;;;;4880878;29;20536;-78
2022/03/23 08:42:44;;;;;;;8.02;4.70;;;9.60;57.60;;;;;;4864410;29;20032;-77
2022/03/23 08:45:11;;;;;;;10.48;5.40;;;9.80;57.90;;;;;;4880621;29;20031;-78
2022/03/23 08:47:38;;;;;;;9.13;5.25;;;10.10;57.60;;;;;;4887686;29;20492;-78
2022/03/23 08:50:07;;;;;;;7.75;4.47;;;10.30;56.80;;;;;;4884108;29;20025;-78
2022/03/23 08:52:34;;;;;;;8.38;4.45;;;10.70;55.60;;;;;;4884921;29;20055;-78
2022/03/23 08:55:14;;;;;;;7.80;4.68;;;11.00;56.00;;;;;;4886377;29;20464;-78
2022/03/23 08:57:41;;;;;;;7.30;4.18;;;11.20;56.20;;;;;;4892141;29;20100;-80
2022/03/23 09:00:08;;;;;;;5.95;3.90;;;11.40;55.50;;;;;;4885871;29;20037;-80
2022/03/23 09:02:34;;;;;;;5.78;3.50;;;11.70;55.20;;;;;;4884522;29;20124;-79
2022/03/23 09:04:59;;;;;;;6.95;3.92;;;11.90;55.20;;;;;;4899807;29;20485;-79
2022/03/23 09:07:25;;;;;;;6.72;3.88;;;12.10;54.90;;;;;;4883977;29;20039;-78
2022/03/23 09:09:51;;;;;;;6.00;3.47;;;12.40;54.00;;;;;;4910212;23;20040;-78
2022/03/23 09:12:17;;;;;;;9.25;4.57;;;12.60;54.10;;;;;;4918101;29;20476;-78
2022/03/23 09:14:43;;;;;;;5.60;3.17;;;12.70;53.50;;;;;;4901734;29;20024;-78
2022/03/23 09:17:08;;;;;;;9.10;4.07;;;12.90;53.10;;;;;;4919206;29;20050;-78
2022/03/23 09:19:34;;;;;;;6.28;3.60;;;13.00;53.20;;;;;;4900097;29;20481;-78
2022/03/23 09:22:00;;;;;;;6.82;3.70;;;13.10;51.80;;;;;;4900215;29;20507;-78
2022/03/23 09:24:27;;;;;;;7.40;3.60;;;13.20;51.70;;;;;;4900739;29;20024;-77
2022/03/23 09:26:54;;;;;;;7.55;4.18;;;13.40;51.70;;;;;;4916255;29;20040;-78
2022/03/23 09:29:20;;;;;;;6.53;3.88;;;13.60;49.80;;;;;;4900932;29;20456;-77
2022/03/23 09:31:46;;;;;;;6.93;3.72;;;13.60;49.60;;;;;;4919141;29;20023;-78
2022/03/23 09:34:12;;;;;;;5.65;3.28;;;13.70;49.10;;;;;;4917970;29;20047;-78
2022/03/23 09:39:22;;;;;;;10.15;3.13;;;13.90;53.70;;;;;;4917277;29;20059;-78
2022/03/23 09:41:49;;;;;;;3.95;2.95;;;14.00;47.40;;;;;;4900138;29;20488;-78
2022/03/23 09:44:15;;;;;;;5.35;2.67;;;14.10;47.70;;;;;;4917988;29;20027;-80
2022/03/23 09:46:42;;;;;;;3.95;2.92;;;14.20;46.50;;;;;;4899896;29;20031;-81
2022/03/23 09:49:08;;;;;;;6.75;3.08;;;14.30;48.00;;;;;;4901024;29;20486;-84
2022/03/23 09:51:36;;;;;;;5.05;3.10;;;14.50;49.80;;;;;;4900493;29;20024;-84
2022/03/23 09:54:04;;;;;;;14.35;3.35;;;14.60;46.50;;;;;;4901541;29;20087;-82
2022/03/23 09:56:29;;;;;;;6.55;3.53;;;14.80;45.10;;;;;;4918523;29;20396;-84
2022/03/23 09:58:55;;;;;;;3.47;2.78;;;15.00;46.90;;;;;;4900448;29;20032;-83
2022/03/23 10:01:33;;;;;;;6.25;3.83;;;15.10;46.10;;;;;;4917154;29;20036;-82
2022/03/23 10:04:26;;;;;;;4.07;2.60;;;15.20;44.60;;;;;;4900751;29;20088;-84
2022/03/23 10:07:17;;;;;;;4.30;2.60;;;15.20;44.00;;;;;;4916787;29;20024;-84
2022/03/23 10:10:01;;;;;;;5.25;3.20;;;15.30;45.60;;;;;;4900155;29;20028;-84
2022/03/23 10:12:54;;;;;;;3.95;2.88;;;15.30;42.90;;;;;;4903020;29;20032;-79
2022/03/23 10:15:58;;;;;;;5.95;3.35;;;15.30;43.60;;;;;;4915961;29;20032;-80
2022/03/23 10:18:49;;;;;;;9.10;3.15;;;15.40;44.20;;;;;;4916247;29;20033;-79
2022/03/23 10:21:15;;;;;;;6.05;2.83;;;15.50;43.40;;;;;;4916051;29;20028;-79
2022/03/23 10:24:13;;;;;;;7.05;2.92;;;15.60;43.20;;;;;;4899885;29;20032;-80
2022/03/23 10:26:42;;;;;;;3.95;2.78;;;15.80;42.60;;;;;;4919426;29;20024;-80
2022/03/23 10:29:22;;;;;;;8.57;5.70;;;15.80;42.60;;;;;;4916548;29;20506;-80
2022/03/23 10:32:00;;;;;;;5.93;3.05;;;15.80;43.10;;;;;;4916075;29;20044;-80
2022/03/23 10:34:40;;;;;;;4.75;2.72;;;15.90;43.20;;;;;;4902615;29;20047;-81
2022/03/23 10:37:06;;;;;;;8.13;2.92;;;16.00;42.90;;;;;;4919303;29;20056;-81
2022/03/23 10:39:32;;;;;;;8.60;3.35;;;16.20;42.90;;;;;;4902505;29;20143;-81
2022/03/23 10:42:07;;;;;;;5.32;3.10;;;16.30;42.20;;;;;;4919572;29;20088;-80
2022/03/23 10:44:33;;;;;;;5.70;3.10;;;16.40;42.40;;;;;;4904702;29;20047;-79
2022/03/23 10:46:59;;;;;;;5.70;3.38;;;16.50;42.30;;;;;;4903511;29;20024;-80
2022/03/23 10:49:50;;;;;;;5.53;3.58;;;16.60;41.60;;;;;;4919093;29;20027;-78
2022/03/23 10:52:17;;;;;;;6.50;3.40;;;16.60;42.20;;;;;;4914466;29;20043;-78
2022/03/23 10:54:58;;;;;;;4.63;3.17;;;16.70;41.10;;;;;;4918686;29;20034;-78
2022/03/23 10:57:52;;;;;;;4.63;3.50;;;16.70;41.10;;;;;;4918834;29;20456;-78
2022/03/23 11:00:29;;;;;;;5.40;3.50;;;16.80;40.90;;;;;;4918804;29;20024;-78
2022/03/23 11:02:54;;;;;;;5.82;3.25;;;16.90;41.40;;;;;;4901953;29;20111;-78
2022/03/23 11:05:37;;;;;;;5.43;3.33;;;16.80;39.40;;;;;;4918668;29;20103;-78
2022/03/23 11:08:10;;;;;;;4.53;3.20;;;16.90;40.00;;;;;;4918750;29;20024;-78
2022/03/23 11:16:54;;;;;;;10.10;3.85;;;17.10;41.00;;;;;;4918676;29;20543;-78
2022/03/23 11:19:13;;;;;;;5.65;4.22;;;17.20;39.00;;;;;;4914141;29;20463;-78
2022/03/23 11:22:04;;;;;;;9.77;4.25;;;17.10;39.50;;;;;;4917845;29;20084;-78
2022/03/23 11:24:41;;;;;;;4.93;3.55;;;17.10;40.00;;;;;;4918331;29;20028;-78
2022/03/23 11:27:11;;;;;;;5.53;3.20;;;17.20;39.70;;;;;;4917674;29;20023;-78
2022/03/23 11:29:39;;;;;;;5.82;4.00;;;17.20;38.10;;;;;;4918035;29;20028;-78
2022/03/23 11:32:11;;;;;;;6.93;4.05;;;17.20;38.10;;;;;;4918284;29;20020;-78
2022/03/23 11:34:39;;;;;;;6.70;4.15;;;17.20;38.10;;;;;;4918058;29;20074;-78
2022/03/23 11:37:07;;;;;;;5.55;3.58;;;17.30;37.70;;;;;;4901213;29;20043;-78
2022/03/23 11:39:34;;;;;;;7.30;3.75;;;17.40;38.10;;;;;;4917547;29;20071;-78
2022/03/23 11:42:02;;;;;;;8.00;3.90;;;17.60;38.60;;;;;;4900988;29;20048;-78
2022/03/23 11:44:27;;;;;;;11.68;4.18;;;17.70;38.40;;;;;;4917606;29;20555;-78
2022/03/23 11:47:07;;;;;;;5.57;3.70;;;17.70;37.00;;;;;;4885222;29;20119;-78
2022/03/23 11:49:33;;;;;;;6.90;3.67;;;17.90;36.60;;;;;;4899842;29;20088;-80
2022/03/23 11:52:01;;;;;;;5.20;3.80;;;18.00;37.00;;;;;;4899531;29;20473;-78
2022/03/23 11:57:56;;;;;;;5.95;3.28;;;18.00;36.10;;;;;;4899040;29;20039;-79
2022/03/23 12:00:27;;;;;;;6.38;3.70;;;18.10;35.70;;;;;;4898905;29;20033;-80
2022/03/23 12:02:56;;;;;;;5.28;3.50;;;18.10;35.40;;;;;;4899236;29;20382;-83
2022/03/23 12:05:24;;;;;;;4.20;3.55;;;18.10;35.50;;;;;;4882716;29;20365;-90
2022/03/23 12:07:50;;;;;;;5.13;3.70;;;18.10;35.70;;;;;;4882827;29;20421;-84
2022/03/23 12:10:24;;;;;;;7.68;3.65;;;18.10;35.00;;;;;;4881920;29;20089;-84
2022/03/23 12:12:50;;;;;;;4.38;3.40;;;18.10;35.80;;;;;;4899592;29;20021;-85
2022/03/23 12:15:24;;;;;;;7.88;2.83;;;18.10;35.50;;;;;;4882465;29;20033;-84
2022/03/23 12:17:56;;;;;;;5.18;3.13;;;18.20;33.50;;;;;;4882382;29;20096;-85
2022/03/23 12:20:33;;;;;;;4.82;3.63;;;18.30;34.80;;;;;;4899590;29;20032;-84
2022/03/23 12:23:17;;;;;;;3.95;2.75;;;18.30;34.00;;;;;;4882575;29;20497;-84
2022/03/23 12:26:04;;;;;;;4.32;2.90;;;18.30;33.20;;;;;;4898995;29;20120;-84
2022/03/23 12:28:55;;;;;;;4.50;2.85;;;18.30;32.20;;;;;;4899038;29;20088;-84
2022/03/23 12:31:21;;;;;;;4.80;3.60;;;18.20;32.10;;;;;;4881885;29;20103;-84
2022/03/23 12:34:06;;;;;;;4.20;3.40;;;18.10;32.80;;;;;;4898752;29;20020;-84
2022/03/23 12:39:32;;;;;;;5.00;3.08;;;18.20;33.20;;;;;;4899062;29;20047;-85
2022/03/23 12:42:11;;;;;;;4.80;3.33;;;18.20;33.90;;;;;;4899438;29;20028;-85
2022/03/23 12:44:38;;;;;;;4.85;3.53;;;18.20;32.30;;;;;;4899087;29;20062;-85
2022/03/23 12:47:05;;;;;;;5.05;3.15;;;18.30;31.60;;;;;;4882705;29;20020;-85
2022/03/23 12:58:18;;;;;;;3.58;2.97;;;18.80;31.70;;;;;;4898704;29;20060;-86
2022/03/23 13:00:48;;;;;;;4.05;2.72;;;18.80;31.90;;;;;;4882211;29;20036;-86
2022/03/23 13:03:19;;;;;;;6.95;2.60;;;18.80;32.00;;;;;;4882168;29;20488;-86
2022/03/23 13:05:54;;;;;;;9.27;3.00;;;18.80;31.70;;;;;;4881839;29;20024;-86
2022/03/23 13:08:35;;;;;;;4.13;2.60;;;18.90;32.00;;;;;;4899267;29;20107;-85
2022/03/23 13:11:04;;;;;;;5.28;2.85;;;19.00;31.80;;;;;;4881948;29;20100;-86
2022/03/23 13:13:35;;;;;;;5.60;2.80;;;19.10;31.80;;;;;;4881992;29;20028;-86
2022/03/23 13:16:02;;;;;;;3.72;3.00;;;19.00;31.70;;;;;;4881558;29;20032;-85
2022/03/23 13:18:31;;;;;;;4.43;2.88;;;19.10;31.90;;;;;;4882079;29;20040;-85
2022/03/23 13:20:58;;;;;;;3.53;2.67;;;19.10;31.40;;;;;;4882231;29;20052;-85
2022/03/23 13:23:25;;;;;;;4.53;2.85;;;19.20;30.90;;;;;;4881832;29;20445;-85
2022/03/23 13:26:13;;;;;;;6.43;3.15;;;19.10;31.00;;;;;;4881955;29;20084;-85
2022/03/23 13:28:50;;;;;;;5.80;3.33;;;19.10;31.60;;;;;;4882008;29;20032;-86
2022/03/23 13:31:21;;;;;;;3.97;2.63;;;19.10;31.30;;;;;;4881766;29;20479;-86
2022/03/23 13:33:50;;;;;;;4.93;2.97;;;19.10;31.20;;;;;;4881975;29;20040;-86
2022/03/23 13:36:17;;;;;;;4.72;3.40;;;19.10;32.00;;;;;;4882127;29;20112;-86
2022/03/23 13:38:48;;;;;;;3.67;2.60;;;19.10;31.30;;;;;;4881802;29;20488;-85
2022/03/23 13:44:01;;;;;;;6.47;3.03;;;19.10;30.50;;;;;;4898556;29;20131;-85
2022/03/23 13:46:28;;;;;;;8.32;3.05;;;19.00;31.30;;;;;;4898439;29;20096;-85
2022/03/23 13:48:58;;;;;;;3.38;2.55;;;19.00;31.60;;;;;;4881777;29;20037;-86
2022/03/23 13:51:31;;;;;;;4.10;2.78;;;19.00;30.70;;;;;;4881697;29;20035;-89
2022/03/23 13:53:58;;;;;;;4.38;3.15;;;18.90;31.00;;;;;;4881548;29;20120;-86
2022/03/23 13:56:26;;;;;;;3.35;2.80;;;19.00;31.00;;;;;;4881658;29;20039;-85
2022/03/23 13:58:51;;;;;;;5.47;2.58;;;19.00;30.50;;;;;;4881846;29;20044;-86
2022/03/23 14:01:18;;;;;;;5.32;3.17;;;18.90;30.90;;;;;;4881088;29;20025;-86
2022/03/23 14:03:44;;;;;;;5.88;3.28;;;19.00;30.60;;;;;;4881231;29;20053;-86
2022/03/23 14:06:15;;;;;;;5.60;2.72;;;19.00;30.90;;;;;;4882578;29;20421;-86